createdAt,value
2023-03-10T00:01:18.086Z,93.60
2023-03-10T00:03:45.662Z,93.80
2023-03-10T00:06:14.758Z,94.00
2023-03-10T00:08:42.420Z,94.10
2023-03-10T00:11:10.309Z,94.20
2023-03-10T00:13:37.827Z,94.40
2023-03-10T00:16:05.616Z,94.30
2023-03-10T00:18:32.718Z,94.30
2023-03-10T00:20:59.882Z,94.20
2023-03-10T00:23:27.160Z,94.30
2023-03-10T00:25:59.480Z,94.30
2023-03-10T00:28:27.561Z,94.30
2023-03-10T00:31:10.529Z,94.30
2023-03-10T00:33:38.220Z,94.30
2023-03-10T00:36:12.408Z,94.10
2023-03-10T00:38:40.585Z,94.10
2023-03-10T00:41:10.983Z,93.90
2023-03-10T00:43:39.202Z,93.90
2023-03-10T00:46:07.003Z,94.10
2023-03-10T00:48:34.457Z,93.90
2023-03-10T00:51:02.430Z,93.80
2023-03-10T00:53:29.748Z,93.90
2023-03-10T00:56:19.974Z,94.00
2023-03-10T00:58:50.055Z,94.00
2023-03-10T01:01:23.878Z,93.70
2023-03-10T01:03:53.245Z,93.30
2023-03-10T01:06:21.146Z,93.20
2023-03-10T01:08:48.882Z,93.00
2023-03-10T01:11:18.205Z,93.00
2023-03-10T01:13:45.460Z,93.20
2023-03-10T01:16:12.534Z,93.20
2023-03-10T01:18:40.894Z,93.10
2023-03-10T01:21:11.374Z,93.00
2023-03-10T01:23:38.497Z,92.90
2023-03-10T01:26:05.429Z,93.20
2023-03-10T01:28:32.556Z,93.20
2023-03-10T01:30:59.572Z,93.20
2023-03-10T01:33:26.694Z,93.10
2023-03-10T01:35:53.595Z,93.20
2023-03-10T01:38:20.658Z,93.20
2023-03-10T01:40:50.001Z,93.20
2023-03-10T01:43:27.335Z,93.30
2023-03-10T01:45:54.322Z,93.20
2023-03-10T01:48:23.686Z,92.90
2023-03-10T01:50:56.172Z,92.70
2023-03-10T01:53:25.636Z,92.50
2023-03-10T01:55:57.123Z,92.40
2023-03-10T01:58:29.604Z,92.30
2023-03-10T02:00:56.751Z,92.40
2023-03-10T02:03:34.967Z,92.50
2023-03-10T02:06:06.156Z,92.60
2023-03-10T02:08:44.303Z,92.70
2023-03-10T02:11:15.310Z,92.70
2023-03-10T02:13:43.178Z,92.40
2023-03-10T02:16:10.838Z,91.90
2023-03-10T02:18:37.841Z,91.60
2023-03-10T02:21:10.620Z,91.50
2023-03-10T02:23:51.264Z,91.50
2023-03-10T02:26:47.874Z,91.80
2023-03-10T02:29:23.879Z,92.00
2023-03-10T02:31:52.454Z,92.10
2023-03-10T02:34:20.178Z,92.10
2023-03-10T02:36:48.959Z,92.30
2023-03-10T02:39:15.861Z,92.10
2023-03-10T02:41:45.415Z,92.30
2023-03-10T02:44:21.902Z,92.30
2023-03-10T02:46:49.212Z,92.60
2023-03-10T02:49:18.821Z,92.60
2023-03-10T02:51:48.215Z,92.60
2023-03-10T02:54:18.014Z,92.90
2023-03-10T02:56:45.573Z,93.00
2023-03-10T02:59:13.762Z,93.20
2023-03-10T03:01:46.257Z,93.30
2023-03-10T03:04:13.827Z,93.30
2023-03-10T03:06:41.250Z,93.40
2023-03-10T03:09:09.106Z,93.50
2023-03-10T03:11:36.386Z,93.50
2023-03-10T03:14:05.665Z,93.60
2023-03-10T03:16:32.741Z,93.50
2023-03-10T03:19:03.877Z,93.00
2023-03-10T03:21:32.549Z,92.60
2023-03-10T03:23:59.832Z,92.60
2023-03-10T03:26:27.661Z,92.80
2023-03-10T03:29:04.305Z,93.30
2023-03-10T03:31:35.058Z,93.70
2023-03-10T03:34:10.700Z,94.00
2023-03-10T03:36:38.399Z,94.10
2023-03-10T03:39:07.319Z,94.20
2023-03-10T03:41:36.096Z,94.10
2023-03-10T03:44:05.174Z,93.80
2023-03-10T03:46:34.788Z,93.70
2023-03-10T03:49:02.101Z,93.80
2023-03-10T03:51:30.753Z,93.80
2023-03-10T03:53:59.035Z,93.70
2023-03-10T03:56:26.298Z,93.70
2023-03-10T03:58:53.311Z,93.60
2023-03-10T04:01:20.558Z,93.60
2023-03-10T04:03:52.060Z,93.60
2023-03-10T04:06:19.174Z,93.50
2023-03-10T04:08:50.439Z,93.40
2023-03-10T04:11:18.265Z,93.30
2023-03-10T04:13:47.509Z,93.40
2023-03-10T04:16:15.555Z,93.50
2023-03-10T04:18:45.087Z,93.30
2023-03-10T04:21:14.771Z,93.10
2023-03-10T04:23:42.387Z,93.00
2023-03-10T04:26:12.366Z,93.00
2023-03-10T04:28:40.960Z,92.70
2023-03-10T04:31:17.421Z,92.60
2023-03-10T04:33:46.758Z,92.80
2023-03-10T04:36:14.125Z,92.90
2023-03-10T04:38:42.575Z,92.80
2023-03-10T04:41:09.788Z,92.80
2023-03-10T04:43:42.934Z,92.80
2023-03-10T04:46:11.863Z,93.00
2023-03-10T04:48:39.451Z,93.30
2023-03-10T04:51:09.323Z,93.50
2023-03-10T04:53:41.602Z,93.50
2023-03-10T04:56:11.266Z,93.70
2023-03-10T04:58:39.712Z,93.90
2023-03-10T05:01:14.609Z,94.00
2023-03-10T05:03:46.790Z,94.00
2023-03-10T05:06:19.992Z,94.00
2023-03-10T05:09:04.888Z,94.20
2023-03-10T05:11:34.549Z,94.20
2023-03-10T05:14:03.434Z,94.30
2023-03-10T05:16:30.955Z,94.30
2023-03-10T05:18:58.162Z,94.20
2023-03-10T05:21:27.827Z,94.30
2023-03-10T05:23:56.813Z,94.40
2023-03-10T05:26:25.019Z,94.50
2023-03-10T05:28:52.249Z,94.60
2023-03-10T05:31:26.837Z,94.50
2023-03-10T05:34:10.844Z,94.50
2023-03-10T05:36:38.023Z,94.50
2023-03-10T05:39:07.577Z,94.50
2023-03-10T05:41:39.421Z,94.70
2023-03-10T05:44:08.375Z,94.70
2023-03-10T05:46:37.159Z,94.80
2023-03-10T05:49:05.629Z,95.00
2023-03-10T05:51:33.389Z,95.10
2023-03-10T05:54:02.587Z,95.20
2023-03-10T05:56:31.902Z,95.40
2023-03-10T05:59:01.653Z,95.50
2023-03-10T06:01:31.280Z,95.60
2023-03-10T06:03:58.882Z,95.70
2023-03-10T06:06:25.788Z,95.80
2023-03-10T06:08:52.826Z,95.90
2023-03-10T06:11:19.924Z,95.80
2023-03-10T06:13:46.887Z,95.70
2023-03-10T06:16:13.974Z,95.70
2023-03-10T06:18:41.554Z,95.90
2023-03-10T06:21:12.051Z,95.90
2023-03-10T06:23:39.601Z,95.90
2023-03-10T06:26:09.915Z,95.90
2023-03-10T06:28:39.098Z,96.00
2023-03-10T06:31:09.792Z,96.10
2023-03-10T06:33:37.092Z,96.20
2023-03-10T06:36:04.651Z,96.30
2023-03-10T06:38:32.010Z,96.50
2023-03-10T06:40:58.977Z,96.60
2023-03-10T06:43:26.296Z,96.70
2023-03-10T06:45:53.337Z,96.80
2023-03-10T06:48:20.588Z,96.90
2023-03-10T06:50:49.595Z,97.00
2023-03-10T06:53:21.082Z,97.10
2023-03-10T06:56:11.416Z,97.10
2023-03-10T06:58:38.968Z,97.50
2023-03-10T07:01:10.552Z,97.20
2023-03-10T07:03:37.617Z,97.20
2023-03-10T07:06:05.797Z,97.20
2023-03-10T07:08:32.823Z,97.20
2023-03-10T07:10:59.783Z,97.30
2023-03-10T07:13:26.894Z,97.30
2023-03-10T07:15:53.832Z,97.30
2023-03-10T07:18:20.952Z,97.30
2023-03-10T07:20:48.682Z,97.30
2023-03-10T07:23:16.161Z,97.40
2023-03-10T07:25:43.233Z,97.40
2023-03-10T07:28:10.733Z,97.40
2023-03-10T07:30:39.895Z,97.30
2023-03-10T07:33:06.998Z,97.30
2023-03-10T07:35:36.697Z,97.30
2023-03-10T07:38:04.698Z,97.30
2023-03-10T07:40:31.745Z,97.30
2023-03-10T07:42:59.340Z,97.20
2023-03-10T07:45:28.298Z,97.10
2023-03-10T07:47:55.499Z,97.10
2023-03-10T07:50:22.810Z,97.20
2023-03-10T07:52:50.269Z,97.20
2023-03-10T07:55:18.234Z,97.10
2023-03-10T07:57:45.194Z,97.20
2023-03-10T08:00:13.250Z,97.30
2023-03-10T08:02:41.103Z,97.40
2023-03-10T08:05:09.897Z,97.70
2023-03-10T08:07:38.020Z,96.90
2023-03-10T08:10:05.749Z,96.60
2023-03-10T08:12:33.609Z,96.50
2023-03-10T08:15:00.652Z,96.50
2023-03-10T08:17:33.524Z,96.50
2023-03-10T08:20:01.049Z,96.30
2023-03-10T08:22:28.858Z,96.30
2023-03-10T08:24:56.390Z,96.40
2023-03-10T08:27:23.961Z,96.40
2023-03-10T08:29:51.000Z,96.50
2023-03-10T08:32:19.967Z,96.20
2023-03-10T08:34:47.311Z,95.50
2023-03-10T08:37:14.661Z,95.20
2023-03-10T08:39:41.731Z,95.00
2023-03-10T08:42:12.065Z,94.70
2023-03-10T08:44:40.083Z,94.70
2023-03-10T08:47:07.662Z,94.90
2023-03-10T08:49:34.982Z,95.10
2023-03-10T08:52:02.350Z,94.70
2023-03-10T08:54:32.256Z,94.50
2023-03-10T08:56:59.818Z,94.30
2023-03-10T08:59:27.197Z,94.20
2023-03-10T09:01:54.188Z,94.20
2023-03-10T09:04:21.244Z,94.00
2023-03-10T09:06:48.200Z,93.80
2023-03-10T09:09:15.327Z,93.90
2023-03-10T09:11:43.201Z,93.70
2023-03-10T09:14:11.696Z,93.00
2023-03-10T09:16:40.281Z,92.80
2023-03-10T09:19:08.092Z,91.30
2023-03-10T09:21:35.182Z,91.40
2023-03-10T09:24:03.023Z,91.60
2023-03-10T09:26:30.370Z,91.40
2023-03-10T09:28:57.511Z,91.30
2023-03-10T09:31:29.735Z,91.60
2023-03-10T09:33:56.893Z,90.20
2023-03-10T09:36:24.418Z,90.10
2023-03-10T09:38:51.810Z,89.00
2023-03-10T09:41:30.605Z,88.80
2023-03-10T09:44:07.786Z,88.50
2023-03-10T09:47:13.786Z,88.50
2023-03-10T09:49:46.469Z,88.40
2023-03-10T09:52:28.324Z,88.00
2023-03-10T09:55:14.383Z,87.70
2023-03-10T09:57:41.729Z,88.30
2023-03-10T10:00:20.847Z,88.40
2023-03-10T10:02:51.973Z,87.70
2023-03-10T10:05:25.093Z,87.50
2023-03-10T10:08:03.110Z,87.10
2023-03-10T10:10:37.243Z,87.30
2023-03-10T10:13:13.892Z,87.40
2023-03-10T10:15:51.226Z,82.90
2023-03-10T10:18:42.717Z,83.00
2023-03-10T10:21:12.684Z,81.20
2023-03-10T10:23:53.033Z,80.30
2023-03-10T10:26:28.476Z,80.30
2023-03-10T10:29:12.115Z,80.20
2023-03-10T10:31:39.501Z,78.70
2023-03-10T10:34:22.628Z,76.90
2023-03-10T10:36:56.358Z,75.00
2023-03-10T10:39:43.467Z,73.60
2023-03-10T10:42:14.350Z,72.10
2023-03-10T10:44:43.352Z,71.00
2023-03-10T10:47:29.128Z,71.80
2023-03-10T10:50:20.862Z,71.60
2023-03-10T10:52:50.746Z,69.70
2023-03-10T10:55:27.361Z,68.70
2023-03-10T10:57:58.797Z,67.00
2023-03-10T11:00:33.617Z,66.70
2023-03-10T11:03:01.177Z,68.40
2023-03-10T11:05:37.682Z,65.60
2023-03-10T11:08:20.043Z,64.80
2023-03-10T11:10:55.118Z,64.90
2023-03-10T11:13:45.426Z,64.90
2023-03-10T11:16:53.620Z,64.50
2023-03-10T11:19:38.408Z,60.40
2023-03-10T11:22:44.904Z,60.90
2023-03-10T11:25:23.919Z,60.90
2023-03-10T11:28:15.297Z,60.10
2023-03-10T11:30:54.180Z,59.90
2023-03-10T11:33:29.942Z,59.20
2023-03-10T11:36:08.858Z,57.80
2023-03-10T11:38:44.938Z,57.50
2023-03-10T11:41:19.942Z,58.50
2023-03-10T11:43:55.768Z,57.90
2023-03-10T11:46:31.813Z,59.40
2023-03-10T11:49:12.409Z,57.70
2023-03-10T11:51:47.692Z,56.50
2023-03-10T11:54:30.684Z,57.40
2023-03-10T11:57:03.856Z,57.20
2023-03-10T11:59:33.476Z,56.90
2023-03-10T12:02:28.243Z,57.70
2023-03-10T12:05:07.014Z,58.00
2023-03-10T12:07:40.026Z,56.20
2023-03-10T12:10:13.126Z,57.60
2023-03-10T12:12:48.749Z,57.30
2023-03-10T12:15:37.114Z,56.90
2023-03-10T12:18:06.398Z,56.70
2023-03-10T12:20:34.898Z,58.20
2023-03-10T12:23:24.976Z,57.40
2023-03-10T12:25:52.023Z,57.10
2023-03-10T12:28:24.822Z,57.40
2023-03-10T12:31:10.823Z,59.00
2023-03-10T12:33:45.725Z,57.90
2023-03-10T12:36:34.462Z,58.10
2023-03-10T12:39:24.165Z,57.10
2023-03-10T12:42:01.415Z,56.30
2023-03-10T12:44:49.539Z,55.30
2023-03-10T12:47:25.631Z,55.20
2023-03-10T12:49:58.286Z,55.60
2023-03-10T12:52:46.436Z,56.90
2023-03-10T12:55:28.957Z,58.30
2023-03-10T12:58:11.149Z,58.10
2023-03-10T13:00:48.166Z,57.00
2023-03-10T13:03:32.523Z,57.50
2023-03-10T13:06:21.022Z,57.20
2023-03-10T13:08:50.069Z,57.70
2023-03-10T13:11:19.896Z,59.10
2023-03-10T13:14:12.503Z,60.00
2023-03-10T13:16:42.184Z,61.50
2023-03-10T13:19:20.791Z,60.40
2023-03-10T13:21:51.133Z,60.00
2023-03-10T13:24:33.703Z,59.30
2023-03-10T13:27:25.147Z,58.80
2023-03-10T13:30:05.758Z,58.40
2023-03-10T13:32:33.650Z,58.00
2023-03-10T13:35:21.276Z,59.10
2023-03-10T13:38:16.197Z,61.10
2023-03-10T13:40:49.885Z,60.80
2023-03-10T13:43:34.864Z,60.60
2023-03-10T13:46:04.554Z,59.70
2023-03-10T13:48:32.830Z,59.90
2023-03-10T13:51:17.504Z,58.70
2023-03-10T13:53:45.915Z,56.90
2023-03-10T13:56:37.135Z,58.20
2023-03-10T13:59:06.909Z,59.70
2023-03-10T14:01:38.756Z,58.20
2023-03-10T14:04:08.880Z,58.70
2023-03-10T14:06:37.171Z,58.20
2023-03-10T14:09:23.621Z,58.20
2023-03-10T14:11:52.291Z,58.60
2023-03-10T14:14:40.011Z,58.70
2023-03-10T14:17:26.175Z,58.90
2023-03-10T14:19:53.404Z,58.60
2023-03-10T14:22:23.019Z,58.10
2023-03-10T14:24:50.603Z,57.90
2023-03-10T14:27:18.215Z,57.60
2023-03-10T14:29:57.278Z,57.40
2023-03-10T14:32:25.194Z,58.10
2023-03-10T14:34:53.578Z,58.30
2023-03-10T14:37:20.682Z,58.40
2023-03-10T14:39:47.673Z,58.70
2023-03-10T14:42:28.970Z,59.30
2023-03-10T14:45:05.446Z,59.90
2023-03-10T14:47:32.899Z,57.80
2023-03-10T14:50:01.420Z,58.20
2023-03-10T14:52:28.550Z,58.30
2023-03-10T14:54:56.304Z,59.60
2023-03-10T14:57:23.385Z,59.10
2023-03-10T14:59:50.509Z,57.90
2023-03-10T15:02:23.991Z,57.40
2023-03-10T15:04:51.203Z,56.50
2023-03-10T15:07:18.393Z,57.10
2023-03-10T15:09:45.659Z,57.80
2023-03-10T15:12:16.580Z,57.10
2023-03-10T15:14:46.881Z,57.60
2023-03-10T15:17:14.135Z,56.00
2023-03-10T15:19:41.224Z,56.60
2023-03-10T15:22:08.141Z,56.90
2023-03-10T15:24:35.305Z,57.80
2023-03-10T15:27:04.986Z,58.40
2023-03-10T15:29:32.174Z,58.50
2023-03-10T15:31:59.429Z,58.50
2023-03-10T15:34:26.489Z,56.10
2023-03-10T15:36:53.750Z,56.00
2023-03-10T15:39:31.166Z,56.20
2023-03-10T15:41:59.351Z,56.50
2023-03-10T15:44:26.395Z,56.90
2023-03-10T15:46:55.097Z,57.60
2023-03-10T15:49:22.310Z,57.90
2023-03-10T15:51:49.562Z,58.70
2023-03-10T15:54:16.534Z,59.10
2023-03-10T15:56:43.612Z,59.40
2023-03-10T15:59:10.939Z,59.40
2023-03-10T16:01:38.149Z,59.60
2023-03-10T16:04:06.170Z,59.80
2023-03-10T16:06:34.260Z,59.90
2023-03-10T16:09:01.383Z,60.40
2023-03-10T16:11:28.967Z,60.50
2023-03-10T16:13:55.948Z,60.90
2023-03-10T16:16:26.548Z,61.50
2023-03-10T16:18:54.045Z,62.00
2023-03-10T16:21:21.307Z,62.30
2023-03-10T16:23:48.547Z,62.40
2023-03-10T16:26:21.636Z,62.20
2023-03-10T16:28:52.635Z,61.80
2023-03-10T16:31:23.333Z,61.70
2023-03-10T16:33:51.680Z,61.70
2023-03-10T16:36:22.105Z,62.00
2023-03-10T16:38:49.882Z,62.30
2023-03-10T16:41:17.815Z,62.60
2023-03-10T16:43:46.409Z,62.80
2023-03-10T16:46:21.674Z,63.20
2023-03-10T16:48:48.978Z,63.50
2023-03-10T16:51:22.962Z,63.80
2023-03-10T16:53:51.476Z,64.10
2023-03-10T16:56:20.546Z,64.20
2023-03-10T16:58:47.656Z,64.20
2023-03-10T17:01:14.754Z,63.90
2023-03-10T17:03:41.951Z,64.10
2023-03-10T17:06:14.016Z,64.20
2023-03-10T17:08:42.282Z,64.60
2023-03-10T17:11:30.828Z,65.00
2023-03-10T17:14:00.784Z,65.20
2023-03-10T17:16:30.269Z,65.40
2023-03-10T17:18:58.962Z,65.40
2023-03-10T17:21:29.331Z,65.50
2023-03-10T17:23:56.854Z,65.60
2023-03-10T17:26:24.294Z,65.40
2023-03-10T17:28:54.044Z,65.20
2023-03-10T17:31:27.262Z,64.60
2023-03-10T17:33:55.719Z,64.00
2023-03-10T17:36:23.407Z,62.70
2023-03-10T17:38:55.169Z,62.10
2023-03-10T17:41:23.284Z,61.20
2023-03-10T17:43:50.594Z,60.90
2023-03-10T17:46:20.681Z,59.70
2023-03-10T17:48:47.933Z,59.70
2023-03-10T17:51:21.155Z,60.20
2023-03-10T17:53:48.469Z,59.80
2023-03-10T17:56:16.512Z,60.00
2023-03-10T17:58:43.914Z,60.20
2023-03-10T18:01:22.954Z,60.50
2023-03-10T18:03:50.096Z,60.80
2023-03-10T18:06:22.764Z,60.90
2023-03-10T18:08:50.794Z,61.10
2023-03-10T18:11:20.024Z,61.20
2023-03-10T18:13:50.567Z,61.40
2023-03-10T18:16:39.197Z,61.50
2023-03-10T18:19:10.432Z,61.70
2023-03-10T18:21:38.009Z,61.80
2023-03-10T18:24:05.199Z,61.90
2023-03-10T18:26:32.664Z,62.00
2023-03-10T18:29:00.160Z,62.10
2023-03-10T18:31:30.156Z,62.30
2023-03-10T18:33:57.695Z,62.50
2023-03-10T18:36:25.796Z,62.60
2023-03-10T18:38:54.046Z,62.80
2023-03-10T18:41:26.999Z,62.90
2023-03-10T18:43:54.371Z,63.00
2023-03-10T18:46:22.859Z,63.00
2023-03-10T18:48:56.045Z,63.00
2023-03-10T18:51:25.162Z,63.10
2023-03-10T18:53:52.173Z,63.10
2023-03-10T18:56:20.074Z,63.20
2023-03-10T18:58:47.113Z,63.40
2023-03-10T19:01:15.415Z,63.60
2023-03-10T19:03:45.737Z,63.80
2023-03-10T19:06:13.010Z,63.90
2023-03-10T19:08:40.057Z,64.10
2023-03-10T19:11:07.647Z,64.10
2023-03-10T19:13:35.451Z,64.30
2023-03-10T19:16:09.510Z,64.30
2023-03-10T19:18:37.715Z,64.50
2023-03-10T19:21:05.822Z,64.50
2023-03-10T19:23:35.044Z,64.70
2023-03-10T19:26:03.010Z,64.80
2023-03-10T19:28:30.226Z,64.90
2023-03-10T19:30:58.166Z,64.90
2023-03-10T19:33:25.225Z,64.90
2023-03-10T19:36:04.283Z,64.90
2023-03-10T19:38:31.728Z,64.80
2023-03-10T19:40:58.703Z,64.70
2023-03-10T19:43:25.824Z,64.80
2023-03-10T19:45:58.702Z,64.80
2023-03-10T19:48:25.777Z,65.00
2023-03-10T19:50:57.512Z,65.20
2023-03-10T19:53:26.082Z,65.50
2023-03-10T19:55:58.521Z,65.70
2023-03-10T19:58:26.403Z,66.10
2023-03-10T20:00:57.842Z,66.60
2023-03-10T20:03:30.936Z,66.90
2023-03-10T20:05:58.183Z,67.50
2023-03-10T20:08:25.192Z,67.90
2023-03-10T20:10:52.560Z,68.30
2023-03-10T20:13:19.552Z,68.80
2023-03-10T20:15:47.029Z,69.20
2023-03-10T20:18:14.816Z,69.60
2023-03-10T20:20:42.076Z,69.90
2023-03-10T20:23:10.161Z,70.30
2023-03-10T20:25:38.333Z,70.60
2023-03-10T20:28:05.798Z,71.00
2023-03-10T20:30:35.979Z,71.40
2023-03-10T20:33:04.152Z,71.70
2023-03-10T20:35:33.535Z,72.10
2023-03-10T20:38:00.949Z,72.50
2023-03-10T20:40:28.112Z,72.90
2023-03-10T20:42:59.768Z,73.30
2023-03-10T20:45:27.635Z,73.70
2023-03-10T20:47:54.644Z,73.90
2023-03-10T20:50:25.328Z,74.20
2023-03-10T20:52:52.994Z,74.60
2023-03-10T20:55:23.274Z,74.70
2023-03-10T20:57:52.402Z,74.70
2023-03-10T21:00:21.499Z,74.70
2023-03-10T21:02:52.145Z,74.70
2023-03-10T21:05:21.032Z,74.60
2023-03-10T21:07:48.188Z,73.90
2023-03-10T21:10:15.626Z,72.80
2023-03-10T21:12:43.265Z,71.50
2023-03-10T21:15:13.881Z,70.60
2023-03-10T21:17:41.758Z,69.90
2023-03-10T21:20:10.482Z,69.40
2023-03-10T21:22:39.852Z,68.80
2023-03-10T21:25:10.267Z,68.10
2023-03-10T21:27:37.321Z,67.50
2023-03-10T21:30:09.377Z,67.00
2023-03-10T21:32:37.226Z,66.50
2023-03-10T21:35:05.961Z,66.30
2023-03-10T21:37:33.103Z,66.00
2023-03-10T21:40:00.240Z,65.80
2023-03-10T21:42:27.355Z,65.90
2023-03-10T21:44:58.408Z,65.90
2023-03-10T21:47:26.030Z,66.10
2023-03-10T21:49:53.266Z,66.00
2023-03-10T21:52:20.297Z,65.60
2023-03-10T21:54:47.450Z,65.30
2023-03-10T21:57:16.713Z,64.70
2023-03-10T21:59:44.202Z,64.50
2023-03-10T22:02:24.093Z,64.00
2023-03-10T22:04:51.343Z,63.50
2023-03-10T22:07:18.374Z,63.10
2023-03-10T22:09:46.878Z,62.90
2023-03-10T22:12:13.855Z,62.40
2023-03-10T22:14:42.072Z,61.90
2023-03-10T22:17:09.641Z,61.50
2023-03-10T22:19:37.697Z,61.00
2023-03-10T22:22:05.277Z,60.70
2023-03-10T22:24:32.443Z,60.50
2023-03-10T22:26:59.963Z,60.40
2023-03-10T22:29:27.040Z,60.50
2023-03-10T22:31:56.258Z,60.80
2023-03-10T22:34:23.367Z,61.10
2023-03-10T22:36:50.307Z,61.00
2023-03-10T22:39:17.336Z,60.70
2023-03-10T22:41:44.275Z,60.40
2023-03-10T22:44:11.253Z,60.10
2023-03-10T22:46:38.863Z,59.80
2023-03-10T22:49:06.916Z,59.40
2023-03-10T22:51:33.870Z,59.10
2023-03-10T22:54:02.004Z,58.90
2023-03-10T22:56:28.863Z,58.90
2023-03-10T22:58:55.880Z,58.80
2023-03-10T23:01:23.398Z,58.70
2023-03-10T23:03:50.929Z,58.90
2023-03-10T23:06:18.943Z,59.00
2023-03-10T23:08:47.128Z,59.10
2023-03-10T23:11:15.721Z,59.10
2023-03-10T23:13:42.977Z,59.00
2023-03-10T23:16:10.093Z,58.90
2023-03-10T23:18:37.354Z,58.60
2023-03-10T23:21:04.848Z,58.40
2023-03-10T23:23:32.413Z,58.20
2023-03-10T23:25:59.343Z,58.20
2023-03-10T23:28:26.644Z,58.20
2023-03-10T23:30:54.444Z,58.20
2023-03-10T23:33:25.077Z,58.00
2023-03-10T23:35:55.076Z,57.80
2023-03-10T23:38:23.701Z,57.80
2023-03-10T23:40:51.183Z,57.60
2023-03-10T23:43:18.481Z,57.20
2023-03-10T23:45:45.812Z,56.90
2023-03-10T23:48:19.314Z,56.80
2023-03-10T23:50:48.141Z,56.80
2023-03-10T23:53:17.219Z,56.80
2023-03-10T23:55:47.976Z,56.80
2023-03-10T23:58:17.432Z,57.00
